createdAt,value
2022-11-15T00:00:54.290Z,28.00
2022-11-15T00:03:23.477Z,29.58
2022-11-15T00:05:50.277Z,28.92
2022-11-15T00:08:17.533Z,27.95
2022-11-15T00:10:54.275Z,30.90
2022-11-15T00:13:20.585Z,27.63
2022-11-15T00:15:46.971Z,31.23
2022-11-15T00:18:14.917Z,30.33
2022-11-15T00:20:41.313Z,32.03
2022-11-15T00:23:07.984Z,33.67
2022-11-15T00:25:34.405Z,40.47
2022-11-15T00:28:01.601Z,39.92
2022-11-15T00:30:28.622Z,41.22
2022-11-15T00:32:55.491Z,31.40
2022-11-15T00:35:22.593Z,35.53
2022-11-15T00:37:49.227Z,31.97
2022-11-15T00:40:15.899Z,39.70
2022-11-15T00:42:42.743Z,46.28
2022-11-15T00:45:10.198Z,40.33
2022-11-15T00:47:36.629Z,35.72
2022-11-15T00:50:03.236Z,41.63
2022-11-15T00:52:29.619Z,45.90
2022-11-15T00:54:56.000Z,47.15
2022-11-15T00:57:22.339Z,40.22
2022-11-15T00:59:48.658Z,54.08
2022-11-15T01:02:15.043Z,42.33
2022-11-15T01:04:41.364Z,47.63
2022-11-15T01:07:07.769Z,45.33
2022-11-15T01:09:34.193Z,38.67
2022-11-15T01:12:00.577Z,43.97
2022-11-15T01:14:27.150Z,36.03
2022-11-15T01:16:53.571Z,45.28
2022-11-15T01:19:19.947Z,39.33
2022-11-15T01:21:46.263Z,43.25
2022-11-15T01:24:15.690Z,39.80
2022-11-15T01:26:42.023Z,36.70
2022-11-15T01:29:08.366Z,39.70
2022-11-15T01:31:35.974Z,34.92
2022-11-15T01:34:02.455Z,37.13
2022-11-15T01:36:28.875Z,36.35
2022-11-15T01:38:56.891Z,38.57
2022-11-15T01:41:26.120Z,41.33
2022-11-15T01:43:58.287Z,36.85
2022-11-15T01:46:34.120Z,37.88
2022-11-15T01:49:11.474Z,48.63
2022-11-15T01:51:38.582Z,36.13
2022-11-15T01:54:09.648Z,41.80
2022-11-15T01:56:46.297Z,33.65
2022-11-15T01:59:13.445Z,34.53
2022-11-15T02:01:39.982Z,38.03
2022-11-15T02:04:13.832Z,33.53
2022-11-15T02:06:41.308Z,34.45
2022-11-15T02:09:07.929Z,35.60
2022-11-15T02:11:34.631Z,33.70
2022-11-15T02:14:02.168Z,38.47
2022-11-15T02:16:47.179Z,38.10
2022-11-15T02:19:41.058Z,33.33
2022-11-15T02:22:35.398Z,37.15
2022-11-15T02:25:16.982Z,46.40
2022-11-15T02:28:08.563Z,32.47
2022-11-15T02:30:44.092Z,34.87
2022-11-15T02:33:25.882Z,36.50
2022-11-15T02:36:02.613Z,32.40
2022-11-15T02:38:28.872Z,36.75
2022-11-15T02:41:10.419Z,35.65
2022-11-15T02:44:14.347Z,37.50
2022-11-15T02:47:02.255Z,33.35
2022-11-15T02:49:32.254Z,34.25
2022-11-15T02:51:58.718Z,37.00
2022-11-15T02:54:29.530Z,36.35
2022-11-15T02:57:00.922Z,32.17
2022-11-15T03:00:01.947Z,32.63
2022-11-15T03:02:55.581Z,27.50
2022-11-15T03:05:40.495Z,32.28
2022-11-15T03:08:09.799Z,34.63
2022-11-15T03:10:54.813Z,31.43
2022-11-15T03:13:45.529Z,31.00
2022-11-15T03:16:27.299Z,27.08
2022-11-15T03:19:38.532Z,28.00
2022-11-15T03:22:08.061Z,28.80
2022-11-15T03:24:37.227Z,33.53
2022-11-15T03:27:06.490Z,30.73
2022-11-15T03:29:36.769Z,30.15
2022-11-15T03:32:11.653Z,25.08
2022-11-15T03:34:48.157Z,30.13
2022-11-15T03:37:16.859Z,30.90
2022-11-15T03:39:44.119Z,32.70
2022-11-15T03:42:17.765Z,32.17
2022-11-15T03:45:02.782Z,28.58
2022-11-15T03:47:59.367Z,28.95
2022-11-15T03:50:26.828Z,25.57
2022-11-15T03:52:55.401Z,26.27
2022-11-15T03:55:22.178Z,27.38
2022-11-15T03:57:54.407Z,28.67
2022-11-15T04:00:20.859Z,27.40
2022-11-15T04:02:47.234Z,30.33
2022-11-15T04:05:13.546Z,26.08
2022-11-15T04:07:40.021Z,29.30
2022-11-15T04:10:07.322Z,26.27
2022-11-15T04:12:36.463Z,25.33
2022-11-15T04:15:23.626Z,30.60
2022-11-15T04:17:55.038Z,26.80
2022-11-15T04:20:46.636Z,25.33
2022-11-15T04:23:32.487Z,23.20
2022-11-15T04:26:01.970Z,29.05
2022-11-15T04:28:28.505Z,22.47
2022-11-15T04:30:54.922Z,23.05
2022-11-15T04:33:22.285Z,25.70
2022-11-15T04:36:08.632Z,23.55
2022-11-15T04:38:35.955Z,20.75
2022-11-15T04:41:03.034Z,22.43
2022-11-15T04:43:30.209Z,24.80
2022-11-15T04:45:56.780Z,27.17
2022-11-15T04:48:23.127Z,26.65
2022-11-15T04:50:50.003Z,27.15
2022-11-15T04:53:16.596Z,23.50
2022-11-15T04:55:46.297Z,24.10
2022-11-15T04:58:12.604Z,25.55
2022-11-15T05:00:40.645Z,24.30
2022-11-15T05:03:25.458Z,21.30
2022-11-15T05:05:51.844Z,24.43
2022-11-15T05:08:18.172Z,23.35
2022-11-15T05:10:44.474Z,27.67
2022-11-15T05:13:10.782Z,25.33
2022-11-15T05:15:37.105Z,21.33
2022-11-15T05:18:03.523Z,28.07
2022-11-15T05:20:29.851Z,23.58
2022-11-15T05:22:59.019Z,23.48
2022-11-15T05:25:25.702Z,23.92
2022-11-15T05:27:52.100Z,22.65
2022-11-15T05:30:18.647Z,21.90
2022-11-15T05:32:45.476Z,21.00
2022-11-15T05:35:22.575Z,23.55
2022-11-15T05:37:49.563Z,27.27
2022-11-15T05:40:16.370Z,24.92
2022-11-15T05:42:42.699Z,27.40
2022-11-15T05:45:10.365Z,26.02
2022-11-15T05:47:39.529Z,26.48
2022-11-15T05:50:06.600Z,20.13
2022-11-15T05:52:37.056Z,23.75
2022-11-15T05:55:05.598Z,23.43
2022-11-15T05:57:31.961Z,24.27
2022-11-15T05:59:59.108Z,27.45
2022-11-15T06:02:25.553Z,22.75
2022-11-15T06:04:51.897Z,22.02
2022-11-15T06:07:18.308Z,24.57
2022-11-15T06:09:44.732Z,24.17
2022-11-15T06:12:11.036Z,33.38
2022-11-15T06:14:37.453Z,19.70
2022-11-15T06:17:08.557Z,23.00
2022-11-15T06:19:37.440Z,24.57
2022-11-15T06:22:03.840Z,27.73
2022-11-15T06:24:30.218Z,22.58
2022-11-15T06:26:56.593Z,24.70
2022-11-15T06:29:22.935Z,25.13
2022-11-15T06:31:49.449Z,23.53
2022-11-15T06:34:15.826Z,25.40
2022-11-15T06:36:42.135Z,26.95
2022-11-15T06:39:08.528Z,21.83
2022-11-15T06:41:36.094Z,24.25
2022-11-15T06:44:03.728Z,21.50
2022-11-15T06:46:30.152Z,26.58
2022-11-15T06:48:56.515Z,28.77
2022-11-15T06:51:22.863Z,25.38
2022-11-15T06:53:49.236Z,26.58
2022-11-15T06:56:15.557Z,21.93
2022-11-15T06:58:41.942Z,24.15
2022-11-15T07:01:12.101Z,26.45
2022-11-15T07:03:41.406Z,23.00
2022-11-15T07:06:08.947Z,23.25
2022-11-15T07:08:36.280Z,22.37
2022-11-15T07:11:04.779Z,26.48
2022-11-15T07:13:36.196Z,25.67
2022-11-15T07:16:04.761Z,19.50
2022-11-15T07:18:31.253Z,26.40
2022-11-15T07:21:01.515Z,26.77
2022-11-15T07:23:28.045Z,27.58
2022-11-15T07:25:54.471Z,24.45
2022-11-15T07:28:20.932Z,25.95
2022-11-15T07:30:47.476Z,24.25
2022-11-15T07:33:13.874Z,23.53
2022-11-15T07:35:40.262Z,23.23
2022-11-15T07:38:06.567Z,23.70
2022-11-15T07:40:33.322Z,21.45
2022-11-15T07:43:01.761Z,22.70
2022-11-15T07:45:28.283Z,20.97
2022-11-15T07:47:56.779Z,20.80
2022-11-15T07:50:26.504Z,19.35
2022-11-15T07:52:57.407Z,19.27
2022-11-15T07:55:24.961Z,21.15
2022-11-15T07:57:51.401Z,18.73
2022-11-15T08:00:18.598Z,21.52
2022-11-15T08:02:46.163Z,18.73
2022-11-15T08:05:12.792Z,21.80
2022-11-15T08:07:39.646Z,18.40
2022-11-15T08:10:08.144Z,19.90
2022-11-15T08:12:35.088Z,20.75
2022-11-15T08:15:01.554Z,19.42
2022-11-15T08:17:27.881Z,18.92
2022-11-15T08:19:54.266Z,20.63
2022-11-15T08:22:20.632Z,22.10
2022-11-15T08:24:46.957Z,17.15
2022-11-15T08:27:16.237Z,18.17
2022-11-15T08:29:43.945Z,19.80
2022-11-15T08:32:11.749Z,15.63
2022-11-15T08:34:39.232Z,19.50
2022-11-15T08:37:05.792Z,19.52
2022-11-15T08:39:32.407Z,16.45
2022-11-15T08:41:58.976Z,13.48
2022-11-15T08:44:25.322Z,18.85
2022-11-15T08:46:51.826Z,15.47
2022-11-15T08:49:19.157Z,15.68
2022-11-15T08:51:45.503Z,18.00
2022-11-15T08:54:11.861Z,16.88
2022-11-15T08:56:38.180Z,14.93
2022-11-15T08:59:04.507Z,16.70
2022-11-15T09:01:30.897Z,18.48
2022-11-15T09:03:57.293Z,21.83
2022-11-15T09:06:23.829Z,16.73
2022-11-15T09:08:50.185Z,17.20
2022-11-15T09:11:18.857Z,19.03
2022-11-15T09:13:45.360Z,16.05
2022-11-15T09:16:13.549Z,15.50
2022-11-15T09:18:39.891Z,14.02
2022-11-15T09:21:06.236Z,17.20
2022-11-15T09:23:32.607Z,15.10
2022-11-15T09:26:04.110Z,19.33
2022-11-15T09:28:32.022Z,15.82
2022-11-15T09:31:00.040Z,15.05
2022-11-15T09:33:27.360Z,15.23
2022-11-15T09:35:54.148Z,16.50
2022-11-15T09:38:21.263Z,15.52
2022-11-15T09:40:56.669Z,14.73
2022-11-15T09:43:58.223Z,13.27
2022-11-15T09:46:43.387Z,13.65
2022-11-15T09:49:12.812Z,16.40
2022-11-15T09:51:48.644Z,15.80
2022-11-15T09:54:56.537Z,10.70
2022-11-15T09:58:05.017Z,9.93
2022-11-15T10:00:48.209Z,12.23
2022-11-15T10:03:17.484Z,8.80
2022-11-15T10:05:46.904Z,11.07
2022-11-15T10:08:32.290Z,9.90
2022-11-15T10:14:11.087Z,10.13
2022-11-15T10:16:50.651Z,7.93
2022-11-15T10:19:27.181Z,7.82
2022-11-15T10:22:27.541Z,8.05
2022-11-15T10:25:21.960Z,7.63
2022-11-15T10:27:53.915Z,5.53
2022-11-15T10:30:21.270Z,6.63
2022-11-15T10:32:50.209Z,7.28
2022-11-15T10:35:20.358Z,6.40
2022-11-15T10:37:46.777Z,6.45
2022-11-15T10:40:24.629Z,6.50
2022-11-15T10:43:09.879Z,5.73
2022-11-15T10:45:36.660Z,4.55
2022-11-15T10:48:15.215Z,7.35
2022-11-15T10:50:43.823Z,4.80
2022-11-15T10:53:22.609Z,7.55
2022-11-15T10:55:52.409Z,3.50
2022-11-15T10:58:28.964Z,7.03
2022-11-15T11:00:55.496Z,6.68
2022-11-15T11:03:27.899Z,4.15
2022-11-15T11:06:13.853Z,3.20
2022-11-15T11:08:40.786Z,5.10
2022-11-15T11:11:08.851Z,4.13
2022-11-15T11:13:40.474Z,3.38
2022-11-15T11:16:15.753Z,3.47
2022-11-15T11:18:57.125Z,3.17
2022-11-15T11:21:44.590Z,4.50
2022-11-15T11:24:35.054Z,3.83
2022-11-15T11:27:18.638Z,4.93
2022-11-15T11:30:03.227Z,3.80
2022-11-15T11:32:54.791Z,4.78
2022-11-15T11:35:31.776Z,3.13
2022-11-15T11:38:37.200Z,6.18
2022-11-15T11:41:30.816Z,3.85
2022-11-15T11:44:12.431Z,4.03
2022-11-15T11:46:57.681Z,3.72
2022-11-15T11:49:29.826Z,5.53
2022-11-15T11:52:12.161Z,4.82
2022-11-15T11:54:49.934Z,6.03
2022-11-15T11:57:26.651Z,6.60
2022-11-15T12:00:04.518Z,3.47
2022-11-15T12:02:44.223Z,2.70
2022-11-15T12:05:18.518Z,4.15
2022-11-15T12:07:49.453Z,2.28
2022-11-15T12:10:24.202Z,2.75
2022-11-15T12:13:06.958Z,3.53
2022-11-15T12:15:46.661Z,3.67
2022-11-15T12:18:16.472Z,4.00
2022-11-15T12:20:54.227Z,4.95
2022-11-15T12:23:26.388Z,4.70
2022-11-15T12:26:03.939Z,3.08
2022-11-15T12:29:04.791Z,2.43
2022-11-15T12:31:35.164Z,4.85
2022-11-15T12:34:40.743Z,3.92
2022-11-15T12:37:39.197Z,3.83
2022-11-15T12:40:25.293Z,4.05
2022-11-15T12:43:15.798Z,5.17
2022-11-15T12:45:46.721Z,2.60
2022-11-15T12:48:19.291Z,4.15
2022-11-15T12:50:51.611Z,3.38
2022-11-15T12:53:24.072Z,2.05
2022-11-15T12:56:05.498Z,2.53
2022-11-15T12:58:59.549Z,2.72
2022-11-15T13:01:31.954Z,2.08
2022-11-15T13:04:20.203Z,3.60
2022-11-15T13:06:48.356Z,3.10
2022-11-15T13:09:29.785Z,6.00
2022-11-15T13:11:57.794Z,3.50
2022-11-15T13:14:48.750Z,2.50
2022-11-15T13:17:21.030Z,5.57
2022-11-15T13:19:59.615Z,2.70
2022-11-15T13:22:46.180Z,3.97
2022-11-15T13:25:21.232Z,3.83
2022-11-15T13:27:49.958Z,3.78
2022-11-15T13:30:28.512Z,4.82
2022-11-15T13:32:55.611Z,4.22
2022-11-15T13:35:31.039Z,4.80
2022-11-15T13:37:58.694Z,2.97
2022-11-15T13:40:28.600Z,3.55
2022-11-15T13:42:55.128Z,7.80
2022-11-15T13:45:21.619Z,3.38
2022-11-15T13:47:58.937Z,5.50
2022-11-15T13:50:34.454Z,2.45
2022-11-15T13:53:04.341Z,4.15
2022-11-15T13:55:33.921Z,5.70
2022-11-15T13:58:07.007Z,3.33
2022-11-15T14:00:36.367Z,4.37
2022-11-15T14:03:15.665Z,5.40
2022-11-15T14:05:42.211Z,2.58
2022-11-15T14:08:17.372Z,5.45
2022-11-15T14:10:43.825Z,2.63
2022-11-15T14:13:29.158Z,3.30
2022-11-15T14:15:55.506Z,2.47
2022-11-15T14:18:46.825Z,4.43
2022-11-15T14:21:13.810Z,4.32
2022-11-15T14:23:40.263Z,2.53
2022-11-15T14:26:11.915Z,3.83
2022-11-15T14:28:41.422Z,6.43
2022-11-15T14:31:13.886Z,1.92
2022-11-15T14:33:41.096Z,2.80
2022-11-15T14:36:16.146Z,3.85
2022-11-15T14:38:43.824Z,3.83
2022-11-15T14:41:20.877Z,3.83
2022-11-15T14:43:47.372Z,4.35
2022-11-15T14:46:13.863Z,4.05
2022-11-15T14:48:40.198Z,4.63
2022-11-15T14:51:21.825Z,4.67
2022-11-15T14:53:48.993Z,5.97
2022-11-15T14:56:17.179Z,2.90
2022-11-15T14:58:43.664Z,4.53
2022-11-15T15:01:24.417Z,3.22
2022-11-15T15:03:53.071Z,4.33
2022-11-15T15:06:19.799Z,4.93
2022-11-15T15:08:48.940Z,1.88
2022-11-15T15:11:21.619Z,2.08
2022-11-15T15:13:48.416Z,2.22
2022-11-15T15:16:14.821Z,3.63
2022-11-15T15:18:41.150Z,4.63
2022-11-15T15:21:20.895Z,3.50
2022-11-15T15:23:47.296Z,1.52
2022-11-15T15:26:13.703Z,2.70
2022-11-15T15:28:40.404Z,4.00
2022-11-15T15:31:07.863Z,2.38
2022-11-15T15:33:34.236Z,1.80
2022-11-15T15:36:00.597Z,3.17
2022-11-15T15:38:27.205Z,4.80
2022-11-15T15:40:53.561Z,3.00
2022-11-15T15:43:19.908Z,4.88
2022-11-15T15:45:46.484Z,1.55
2022-11-15T15:48:17.830Z,5.97
2022-11-15T15:50:46.019Z,1.33
2022-11-15T15:53:13.779Z,4.63
2022-11-15T15:55:40.831Z,2.42
2022-11-15T15:58:08.938Z,2.83
2022-11-15T16:00:35.258Z,2.95
2022-11-15T16:03:01.606Z,1.58
2022-11-15T16:05:28.071Z,2.50
2022-11-15T16:07:54.494Z,7.20
2022-11-15T16:10:32.707Z,3.60
2022-11-15T16:12:59.279Z,1.85
2022-11-15T16:15:28.222Z,2.97
2022-11-15T16:17:56.754Z,2.60
2022-11-15T16:20:47.365Z,3.90
2022-11-15T16:23:18.872Z,2.08
2022-11-15T16:25:47.939Z,4.05
2022-11-15T16:28:30.293Z,4.18
2022-11-15T16:31:03.887Z,4.33
2022-11-15T16:33:31.264Z,3.90
2022-11-15T16:35:58.553Z,1.75
2022-11-15T16:38:24.922Z,2.67
2022-11-15T16:40:51.340Z,2.67
2022-11-15T16:43:18.249Z,3.60
2022-11-15T16:45:44.867Z,2.42
2022-11-15T16:48:28.590Z,3.58
2022-11-15T16:50:57.142Z,2.15
2022-11-15T16:53:24.088Z,4.65
2022-11-15T16:55:50.520Z,4.77
2022-11-15T16:58:16.923Z,4.10
2022-11-15T17:00:43.583Z,2.47
2022-11-15T17:03:10.537Z,3.60
2022-11-15T17:05:36.863Z,2.03
2022-11-15T17:08:03.212Z,2.03
2022-11-15T17:10:29.609Z,3.28
2022-11-15T17:12:56.338Z,1.92
2022-11-15T17:15:24.398Z,2.88
2022-11-15T17:17:52.982Z,2.83
2022-11-15T17:20:21.018Z,2.83
2022-11-15T17:22:47.534Z,2.63
2022-11-15T17:25:14.067Z,2.40
2022-11-15T17:27:41.000Z,2.80
2022-11-15T17:30:08.022Z,2.03
2022-11-15T17:32:37.578Z,3.47
2022-11-15T17:35:11.947Z,3.15
2022-11-15T17:37:41.408Z,3.58
2022-11-15T17:40:08.208Z,4.75
2022-11-15T17:42:34.545Z,3.50
2022-11-15T17:45:04.024Z,2.53
2022-11-15T17:47:34.675Z,4.50
2022-11-15T17:50:00.999Z,3.28
2022-11-15T17:52:27.347Z,4.43
2022-11-15T17:54:53.671Z,5.05
2022-11-15T17:57:20.037Z,4.33
2022-11-15T17:59:46.353Z,7.32
2022-11-15T18:02:12.791Z,2.85
2022-11-15T18:04:40.547Z,3.22
2022-11-15T18:07:06.959Z,5.60
2022-11-15T18:09:33.304Z,7.87
2022-11-15T18:11:59.699Z,3.90
2022-11-15T18:14:26.614Z,3.78
2022-11-15T18:16:54.832Z,3.65
2022-11-15T18:19:21.146Z,5.32
2022-11-15T18:21:56.810Z,6.13
2022-11-15T18:24:34.848Z,4.93
2022-11-15T18:27:02.782Z,3.75
2022-11-15T18:29:29.172Z,5.95
2022-11-15T18:31:55.941Z,4.15
2022-11-15T18:34:33.356Z,3.40
2022-11-15T18:37:02.572Z,4.13
2022-11-15T18:39:29.012Z,3.60
2022-11-15T18:41:55.876Z,5.70
2022-11-15T18:44:22.322Z,5.43
2022-11-15T18:46:48.678Z,4.43
2022-11-15T18:49:16.961Z,5.32
2022-11-15T18:51:43.898Z,5.25
2022-11-15T18:54:14.527Z,5.15
2022-11-15T18:56:41.432Z,6.13
2022-11-15T18:59:08.720Z,4.83
2022-11-15T19:01:40.930Z,4.32
2022-11-15T19:04:14.356Z,4.90
2022-11-15T19:06:42.947Z,6.25
2022-11-15T19:09:11.011Z,6.82
2022-11-15T19:11:39.543Z,5.30
2022-11-15T19:14:07.742Z,5.10
2022-11-15T19:16:37.048Z,5.10
2022-11-15T19:19:07.039Z,5.72
2022-11-15T19:21:33.540Z,4.78
2022-11-15T19:24:00.670Z,6.10
2022-11-15T19:26:28.313Z,4.55
2022-11-15T19:28:57.042Z,8.57
2022-11-15T19:31:24.725Z,5.60
2022-11-15T19:33:52.658Z,7.45
2022-11-15T19:36:24.007Z,5.83
2022-11-15T19:38:50.356Z,5.93
2022-11-15T19:41:19.089Z,7.03
2022-11-15T19:43:50.663Z,8.32
2022-11-15T19:46:18.552Z,6.95
2022-11-15T19:48:44.930Z,5.53
2022-11-15T19:51:13.293Z,6.93
2022-11-15T19:53:40.425Z,5.85
2022-11-15T19:56:11.398Z,6.38
2022-11-15T19:58:38.292Z,6.45
2022-11-15T20:01:07.289Z,7.20
2022-11-15T20:03:35.964Z,5.18
2022-11-15T20:06:05.166Z,5.50
2022-11-15T20:08:32.612Z,6.30
2022-11-15T20:11:00.734Z,6.95
2022-11-15T20:13:27.968Z,7.93
2022-11-15T20:15:54.959Z,8.80
2022-11-15T20:18:21.722Z,8.82
2022-11-15T20:20:48.161Z,5.88
2022-11-15T20:23:14.697Z,7.95
2022-11-15T20:25:44.649Z,7.20
2022-11-15T20:28:16.628Z,10.00
2022-11-15T20:30:47.539Z,7.97
2022-11-15T20:33:14.887Z,7.10
2022-11-15T20:35:41.252Z,8.13
2022-11-15T20:38:08.143Z,7.33
2022-11-15T20:40:34.680Z,7.38
2022-11-15T20:43:01.031Z,8.77
2022-11-15T20:45:27.349Z,9.40
2022-11-15T20:47:59.966Z,8.43
2022-11-15T20:50:42.301Z,10.27
2022-11-15T20:53:10.821Z,9.55
2022-11-15T20:55:41.587Z,7.15
2022-11-15T20:58:09.359Z,8.90
2022-11-15T21:00:36.800Z,8.40
2022-11-15T21:03:07.260Z,8.33
2022-11-15T21:05:35.097Z,9.18
2022-11-15T21:08:01.663Z,10.10
2022-11-15T21:10:46.338Z,10.93
2022-11-15T21:13:12.723Z,8.02
2022-11-15T21:15:39.042Z,9.03
2022-11-15T21:18:05.599Z,8.82
2022-11-15T21:20:31.987Z,8.60
2022-11-15T21:22:58.312Z,10.68
2022-11-15T21:25:24.622Z,10.57
2022-11-15T21:27:52.249Z,9.07
2022-11-15T21:30:18.745Z,11.43
2022-11-15T21:32:45.543Z,11.20
2022-11-15T21:35:12.000Z,10.52
2022-11-15T21:37:38.359Z,10.57
2022-11-15T21:40:05.221Z,12.37
2022-11-15T21:42:31.523Z,8.07
2022-11-15T21:44:57.926Z,9.55
2022-11-15T21:47:24.239Z,8.77
2022-11-15T21:49:50.607Z,9.88
2022-11-15T21:52:16.989Z,8.00
2022-11-15T21:54:44.432Z,9.32
2022-11-15T21:57:11.242Z,10.65
2022-11-15T22:00:00.151Z,9.38
2022-11-15T22:02:26.534Z,9.48
2022-11-15T22:04:52.916Z,12.00
2022-11-15T22:07:19.333Z,9.45
2022-11-15T22:09:45.799Z,10.10
2022-11-15T22:12:12.692Z,11.52
2022-11-15T22:14:39.081Z,11.23
2022-11-15T22:17:05.508Z,8.10
2022-11-15T22:19:31.913Z,10.23
2022-11-15T22:21:58.335Z,9.50
2022-11-15T22:24:24.871Z,10.68
2022-11-15T22:26:51.178Z,9.05
2022-11-15T22:29:17.493Z,7.47
2022-11-15T22:31:43.895Z,12.23
2022-11-15T22:34:10.295Z,11.60
2022-11-15T22:36:58.387Z,10.63
2022-11-15T22:39:23.062Z,11.20
2022-11-15T22:41:49.439Z,10.80
2022-11-15T22:44:15.789Z,10.65
2022-11-15T22:46:42.197Z,12.45
2022-11-15T22:49:09.197Z,9.65
2022-11-15T22:51:35.681Z,10.18
2022-11-15T22:54:02.335Z,8.87
2022-11-15T22:56:28.654Z,11.57
2022-11-15T22:58:55.074Z,12.07
2022-11-15T23:01:22.006Z,11.23
2022-11-15T23:03:48.737Z,8.48
2022-11-15T23:06:15.209Z,11.33
2022-11-15T23:08:41.960Z,11.48
2022-11-15T23:11:29.133Z,12.45
2022-11-15T23:13:55.617Z,10.35
2022-11-15T23:16:22.569Z,10.32
2022-11-15T23:18:59.403Z,9.73
2022-11-15T23:21:50.461Z,9.27
2022-11-15T23:24:17.751Z,10.32
2022-11-15T23:26:46.107Z,9.02
2022-11-15T23:29:14.575Z,9.82
2022-11-15T23:32:02.486Z,10.90
2022-11-15T23:34:30.522Z,9.73
2022-11-15T23:36:57.343Z,12.25
2022-11-15T23:39:23.866Z,13.60
2022-11-15T23:41:50.327Z,9.75
2022-11-15T23:44:16.643Z,10.13
2022-11-15T23:46:43.007Z,11.98
2022-11-15T23:49:09.669Z,10.40
2022-11-15T23:51:36.214Z,11.50
2022-11-15T23:54:02.645Z,10.82
2022-11-15T23:56:29.056Z,12.63
2022-11-15T23:58:55.444Z,11.20
